sensor_id;sensor_type;location;lat;lon;timestamp;pressure;altitude;pressure_sealevel;temperature;humidity
21869;BME280;11099;41.564;23.296;2023-11-21T00:00:04;97466.59;;;9.93;87.06
21869;BME280;11099;41.564;23.296;2023-11-21T00:02:36;97450.19;;;9.91;86.21
21869;BME280;11099;41.564;23.296;2023-11-21T00:05:03;97539.91;;;10.44;85.58
21869;BME280;11099;41.564;23.296;2023-11-21T00:07:29;97560.66;;;10.33;87.04
21869;BME280;11099;41.564;23.296;2023-11-21T00:09:55;97556.56;;;9.77;91.27
21869;BME280;11099;41.564;23.296;2023-11-21T00:12:21;97479.41;;;9.68;90.06
21869;BME280;11099;41.564;23.296;2023-11-21T00:14:46;97496.41;;;9.31;94.01
21869;BME280;11099;41.564;23.296;2023-11-21T00:17:12;97542.72;;;9.39;94.43
21869;BME280;11099;41.564;23.296;2023-11-21T00:19:38;97469.66;;;9.28;92.62
21869;BME280;11099;41.564;23.296;2023-11-21T00:22:03;97470.97;;;9.53;91.31
21869;BME280;11099;41.564;23.296;2023-11-21T00:24:29;97521.06;;;9.95;89.81
21869;BME280;11099;41.564;23.296;2023-11-21T00:26:54;97507.94;;;9.99;88.62
21869;BME280;11099;41.564;23.296;2023-11-21T00:29:20;97528.00;;;10.05;88.45
21869;BME280;11099;41.564;23.296;2023-11-21T00:31:45;97458.69;;;9.57;88.87
21869;BME280;11099;41.564;23.296;2023-11-21T00:34:12;97510.91;;;10.20;87.69
21869;BME280;11099;41.564;23.296;2023-11-21T00:36:37;97408.19;;;9.57;86.70
21869;BME280;11099;41.564;23.296;2023-11-21T00:39:03;97543.72;;;10.51;86.60
21869;BME280;11099;41.564;23.296;2023-11-21T00:41:31;97435.44;;;9.85;86.07
21869;BME280;11099;41.564;23.296;2023-11-21T00:43:57;97441.69;;;9.89;86.00
21869;BME280;11099;41.564;23.296;2023-11-21T00:46:22;97517.00;;;9.75;88.17
21869;BME280;11099;41.564;23.296;2023-11-21T00:48:49;97434.53;;;9.31;88.93
21869;BME280;11099;41.564;23.296;2023-11-21T00:51:15;97455.78;;;9.17;88.98
21869;BME280;11099;41.564;23.296;2023-11-21T00:53:40;97503.19;;;9.51;90.45
21869;BME280;11099;41.564;23.296;2023-11-21T00:56:06;97378.41;;;8.46;91.05
21869;BME280;11099;41.564;23.296;2023-11-21T00:58:33;97470.97;;;8.89;93.81
21869;BME280;11099;41.564;23.296;2023-11-21T01:00:59;97425.44;;;8.54;94.84
21869;BME280;11099;41.564;23.296;2023-11-21T01:03:25;97464.97;;;8.83;94.33
21869;BME280;11099;41.564;23.296;2023-11-21T01:05:50;97485.13;;;8.98;95.04
21869;BME280;11099;41.564;23.296;2023-11-21T01:08:16;97438.69;;;8.40;96.79
21869;BME280;11099;41.564;23.296;2023-11-21T01:10:41;97497.34;;;8.39;99.17
21869;BME280;11099;41.564;23.296;2023-11-21T01:13:07;97527.41;;;8.15;100.00
21869;BME280;11099;41.564;23.296;2023-11-21T01:15:33;97508.69;;;8.26;100.00
21869;BME280;11099;41.564;23.296;2023-11-21T01:17:59;97428.41;;;7.36;100.00
21869;BME280;11099;41.564;23.296;2023-11-21T01:20:24;97462.03;;;7.92;100.00
21869;BME280;11099;41.564;23.296;2023-11-21T01:22:50;97470.06;;;7.30;100.00
21869;BME280;11099;41.564;23.296;2023-11-21T01:25:16;97486.81;;;7.82;100.00
21869;BME280;11099;41.564;23.296;2023-11-21T01:27:42;97543.06;;;8.50;100.00
21869;BME280;11099;41.564;23.296;2023-11-21T01:30:09;97515.63;;;8.40;100.00
21869;BME280;11099;41.564;23.296;2023-11-21T01:32:37;97284.38;;;6.43;100.00
21869;BME280;11099;41.564;23.296;2023-11-21T01:35:04;97535.03;;;7.84;100.00
21869;BME280;11099;41.564;23.296;2023-11-21T01:37:31;97468.94;;;7.55;100.00
21869;BME280;11099;41.564;23.296;2023-11-21T01:39:57;97496.00;;;7.71;100.00
21869;BME280;11099;41.564;23.296;2023-11-21T01:42:22;97535.56;;;8.38;100.00
21869;BME280;11099;41.564;23.296;2023-11-21T01:44:48;97506.91;;;8.21;100.00
21869;BME280;11099;41.564;23.296;2023-11-21T01:47:14;97487.34;;;8.36;100.00
21869;BME280;11099;41.564;23.296;2023-11-21T01:49:43;97514.19;;;8.62;100.00
21869;BME280;11099;41.564;23.296;2023-11-21T01:52:11;97455.50;;;8.50;100.00
21869;BME280;11099;41.564;23.296;2023-11-21T01:54:37;97455.03;;;8.61;100.00
21869;BME280;11099;41.564;23.296;2023-11-21T01:57:03;97510.66;;;8.66;100.00
21869;BME280;11099;41.564;23.296;2023-11-21T01:59:36;97510.28;;;8.87;100.00
21869;BME280;11099;41.564;23.296;2023-11-21T02:02:06;97513.53;;;9.11;100.00
21869;BME280;11099;41.564;23.296;2023-11-21T02:04:33;97447.09;;;8.75;100.00
21869;BME280;11099;41.564;23.296;2023-11-21T02:06:59;97523.75;;;9.32;100.00
21869;BME280;11099;41.564;23.296;2023-11-21T02:09:28;97174.06;;;7.13;99.42
21869;BME280;11099;41.564;23.296;2023-11-21T02:11:56;97408.53;;;8.91;98.69
21869;BME280;11099;41.564;23.296;2023-11-21T02:14:21;97460.88;;;9.41;98.03
21869;BME280;11099;41.564;23.296;2023-11-21T02:16:50;97468.66;;;9.37;97.58
21869;BME280;11099;41.564;23.296;2023-11-21T02:19:19;97441.34;;;8.40;100.00
21869;BME280;11099;41.564;23.296;2023-11-21T02:21:49;97456.31;;;8.91;100.00
21869;BME280;11099;41.564;23.296;2023-11-21T02:24:18;97470.56;;;8.82;100.00
21869;BME280;11099;41.564;23.296;2023-11-21T02:26:44;97451.88;;;9.14;100.00
21869;BME280;11099;41.564;23.296;2023-11-21T02:29:11;97441.00;;;8.14;100.00
21869;BME280;11099;41.564;23.296;2023-11-21T02:31:38;97462.50;;;8.59;100.00
21869;BME280;11099;41.564;23.296;2023-11-21T02:34:16;97506.56;;;9.29;100.00
21869;BME280;11099;41.564;23.296;2023-11-21T02:36:43;97422.97;;;8.99;100.00
21869;BME280;11099;41.564;23.296;2023-11-21T02:39:09;97494.13;;;9.52;99.65
21869;BME280;11099;41.564;23.296;2023-11-21T02:41:38;97431.81;;;9.08;99.44
21869;BME280;11099;41.564;23.296;2023-11-21T02:44:07;97475.09;;;8.95;100.00
21869;BME280;11099;41.564;23.296;2023-11-21T02:46:33;97492.97;;;9.17;100.00
21869;BME280;11099;41.564;23.296;2023-11-21T02:49:01;97461.00;;;9.22;99.75
21869;BME280;11099;41.564;23.296;2023-11-21T02:51:26;97472.50;;;9.31;99.61
21869;BME280;11099;41.564;23.296;2023-11-21T02:53:52;97509.66;;;9.59;98.64
21869;BME280;11099;41.564;23.296;2023-11-21T02:56:19;97467.44;;;9.57;97.75
21869;BME280;11099;41.564;23.296;2023-11-21T02:58:45;97465.09;;;9.42;97.44
21869;BME280;11099;41.564;23.296;2023-11-21T03:01:10;97432.34;;;9.33;96.34
21869;BME280;11099;41.564;23.296;2023-11-21T03:03:37;97489.44;;;9.94;95.77
21869;BME280;11099;41.564;23.296;2023-11-21T03:06:05;97460.03;;;9.68;95.61
21869;BME280;11099;41.564;23.296;2023-11-21T03:08:31;97485.94;;;9.85;94.81
21869;BME280;11099;41.564;23.296;2023-11-21T03:10:57;97378.28;;;9.29;94.60
21869;BME280;11099;41.564;23.296;2023-11-21T03:13:23;97490.03;;;9.68;96.26
21869;BME280;11099;41.564;23.296;2023-11-21T03:15:48;97501.50;;;9.77;95.37
21869;BME280;11099;41.564;23.296;2023-11-21T03:18:14;97448.59;;;9.45;96.01
21869;BME280;11099;41.564;23.296;2023-11-21T03:20:39;97450.97;;;9.55;95.51
21869;BME280;11099;41.564;23.296;2023-11-21T03:23:05;97455.09;;;9.25;96.02
21869;BME280;11099;41.564;23.296;2023-11-21T03:25:30;97409.47;;;9.23;95.79
21869;BME280;11099;41.564;23.296;2023-11-21T03:27:56;97476.63;;;9.73;96.08
21869;BME280;11099;41.564;23.296;2023-11-21T03:30:22;97452.41;;;9.39;96.04
21869;BME280;11099;41.564;23.296;2023-11-21T03:32:47;97434.31;;;9.41;95.86
21869;BME280;11099;41.564;23.296;2023-11-21T03:35:13;97444.53;;;9.34;96.32
21869;BME280;11099;41.564;23.296;2023-11-21T03:37:38;97404.38;;;9.13;96.04
21869;BME280;11099;41.564;23.296;2023-11-21T03:40:07;97478.06;;;9.57;96.69
21869;BME280;11099;41.564;23.296;2023-11-21T03:42:34;97463.22;;;9.56;95.42
21869;BME280;11099;41.564;23.296;2023-11-21T03:45:00;97240.84;;;8.12;95.00
21869;BME280;11099;41.564;23.296;2023-11-21T03:47:27;97483.84;;;9.73;95.63
21869;BME280;11099;41.564;23.296;2023-11-21T03:49:53;97445.34;;;9.34;96.37
21869;BME280;11099;41.564;23.296;2023-11-21T03:52:18;97443.06;;;9.41;95.82
21869;BME280;11099;41.564;23.296;2023-11-21T03:54:44;97418.59;;;9.31;95.91
21869;BME280;11099;41.564;23.296;2023-11-21T03:57:11;97474.13;;;9.55;96.06
21869;BME280;11099;41.564;23.296;2023-11-21T03:59:39;97490.03;;;9.68;95.23
21869;BME280;11099;41.564;23.296;2023-11-21T04:02:05;97454.25;;;9.52;95.54
21869;BME280;11099;41.564;23.296;2023-11-21T04:04:30;97465.00;;;9.47;95.79
21869;BME280;11099;41.564;23.296;2023-11-21T04:06:56;97281.72;;;8.25;95.35
21869;BME280;11099;41.564;23.296;2023-11-21T04:09:21;97503.13;;;9.29;97.79
21869;BME280;11099;41.564;23.296;2023-11-21T04:11:50;97437.16;;;8.53;100.00
21869;BME280;11099;41.564;23.296;2023-11-21T04:14:16;97468.38;;;8.42;100.00
21869;BME280;11099;41.564;23.296;2023-11-21T04:16:42;97538.28;;;8.65;100.00
21869;BME280;11099;41.564;23.296;2023-11-21T04:19:08;97499.31;;;9.07;100.00
21869;BME280;11099;41.564;23.296;2023-11-21T04:21:42;97448.63;;;8.62;100.00
21869;BME280;11099;41.564;23.296;2023-11-21T04:24:08;97492.03;;;8.85;100.00
21869;BME280;11099;41.564;23.296;2023-11-21T04:26:34;97457.09;;;8.78;100.00
21869;BME280;11099;41.564;23.296;2023-11-21T04:28:59;97474.41;;;8.76;100.00
21869;BME280;11099;41.564;23.296;2023-11-21T04:31:25;97429.19;;;8.67;100.00
21869;BME280;11099;41.564;23.296;2023-11-21T04:33:50;97455.72;;;8.94;100.00
21869;BME280;11099;41.564;23.296;2023-11-21T04:36:16;97436.34;;;8.66;100.00
21869;BME280;11099;41.564;23.296;2023-11-21T04:38:42;97468.19;;;9.21;99.02
21869;BME280;11099;41.564;23.296;2023-11-21T04:41:07;97480.78;;;9.30;98.74
21869;BME280;11099;41.564;23.296;2023-11-21T04:43:33;97443.66;;;8.75;100.00
21869;BME280;11099;41.564;23.296;2023-11-21T04:45:59;97548.38;;;9.23;99.73
21869;BME280;11099;41.564;23.296;2023-11-21T04:48:25;97251.97;;;7.26;100.00
21869;BME280;11099;41.564;23.296;2023-11-21T04:50:50;97515.50;;;9.19;99.66
21869;BME280;11099;41.564;23.296;2023-11-21T04:53:17;97428.81;;;8.74;99.54
21869;BME280;11099;41.564;23.296;2023-11-21T04:55:42;97499.47;;;9.24;99.28
21869;BME280;11099;41.564;23.296;2023-11-21T04:58:09;97483.13;;;9.17;99.42
21869;BME280;11099;41.564;23.296;2023-11-21T05:00:35;97446.50;;;8.92;99.00
21869;BME280;11099;41.564;23.296;2023-11-21T05:03:02;97348.13;;;7.73;100.00
21869;BME280;11099;41.564;23.296;2023-11-21T05:05:28;97432.09;;;7.91;100.00
21869;BME280;11099;41.564;23.296;2023-11-21T05:07:55;97514.13;;;8.94;100.00
21869;BME280;11099;41.564;23.296;2023-11-21T05:10:21;97492.03;;;8.39;100.00
21869;BME280;11099;41.564;23.296;2023-11-21T05:12:48;97479.75;;;7.59;100.00
21869;BME280;11099;41.564;23.296;2023-11-21T05:15:15;97459.69;;;7.72;100.00
21869;BME280;11099;41.564;23.296;2023-11-21T05:17:42;97519.88;;;8.55;100.00
21869;BME280;11099;41.564;23.296;2023-11-21T05:20:13;97538.78;;;8.67;100.00
21869;BME280;11099;41.564;23.296;2023-11-21T05:22:40;97378.78;;;7.93;100.00
21869;BME280;11099;41.564;23.296;2023-11-21T05:25:06;97522.75;;;8.59;100.00
21869;BME280;11099;41.564;23.296;2023-11-21T05:27:33;97455.66;;;8.26;100.00
21869;BME280;11099;41.564;23.296;2023-11-21T05:30:04;97535.66;;;8.79;100.00
21869;BME280;11099;41.564;23.296;2023-11-21T05:32:37;97492.97;;;7.97;100.00
21869;BME280;11099;41.564;23.296;2023-11-21T05:35:03;97200.31;;;5.30;100.00
21869;BME280;11099;41.564;23.296;2023-11-21T05:37:29;97502.72;;;7.26;100.00
21869;BME280;11099;41.564;23.296;2023-11-21T05:39:55;97505.94;;;7.60;100.00
21869;BME280;11099;41.564;23.296;2023-11-21T05:42:29;97464.06;;;7.44;100.00
21869;BME280;11099;41.564;23.296;2023-11-21T05:44:56;97481.53;;;7.63;100.00
21869;BME280;11099;41.564;23.296;2023-11-21T05:47:24;97494.97;;;8.05;100.00
21869;BME280;11099;41.564;23.296;2023-11-21T05:49:51;97518.22;;;8.27;100.00
21869;BME280;11099;41.564;23.296;2023-11-21T05:52:17;97502.31;;;8.27;100.00
21869;BME280;11099;41.564;23.296;2023-11-21T05:54:43;97522.50;;;8.23;100.00
21869;BME280;11099;41.564;23.296;2023-11-21T05:57:09;97560.94;;;8.44;100.00
21869;BME280;11099;41.564;23.296;2023-11-21T05:59:34;97437.59;;;7.95;100.00
21869;BME280;11099;41.564;23.296;2023-11-21T06:02:00;97479.97;;;8.14;100.00
21869;BME280;11099;41.564;23.296;2023-11-21T06:04:25;97497.91;;;7.84;100.00
21869;BME280;11099;41.564;23.296;2023-11-21T06:06:52;97518.53;;;7.69;100.00
21869;BME280;11099;41.564;23.296;2023-11-21T06:09:18;97481.88;;;7.38;100.00
21869;BME280;11099;41.564;23.296;2023-11-21T06:11:44;97523.00;;;7.54;100.00
21869;BME280;11099;41.564;23.296;2023-11-21T06:14:09;97530.22;;;8.05;100.00
21869;BME280;11099;41.564;23.296;2023-11-21T06:16:36;97490.75;;;8.04;100.00
21869;BME280;11099;41.564;23.296;2023-11-21T06:19:02;97543.38;;;8.62;100.00
21869;BME280;11099;41.564;23.296;2023-11-21T06:21:27;97380.22;;;7.85;100.00
21869;BME280;11099;41.564;23.296;2023-11-21T06:23:53;97534.59;;;8.80;100.00
21869;BME280;11099;41.564;23.296;2023-11-21T06:26:19;97521.03;;;8.95;100.00
21869;BME280;11099;41.564;23.296;2023-11-21T06:28:45;97448.34;;;8.36;100.00
21869;BME280;11099;41.564;23.296;2023-11-21T06:31:11;97569.72;;;9.32;100.00
21869;BME280;11099;41.564;23.296;2023-11-21T06:33:37;97533.19;;;8.83;100.00
21869;BME280;11099;41.564;23.296;2023-11-21T06:36:03;97555.16;;;9.30;100.00
21869;BME280;11099;41.564;23.296;2023-11-21T06:38:29;97572.06;;;9.47;100.00
21869;BME280;11099;41.564;23.296;2023-11-21T06:40:58;97547.47;;;9.14;100.00
21869;BME280;11099;41.564;23.296;2023-11-21T06:43:27;97571.00;;;9.07;100.00
21869;BME280;11099;41.564;23.296;2023-11-21T06:45:52;97571.88;;;9.30;100.00
21869;BME280;11099;41.564;23.296;2023-11-21T06:48:18;97500.44;;;8.60;100.00
21869;BME280;11099;41.564;23.296;2023-11-21T06:50:43;97510.88;;;9.11;100.00
21869;BME280;11099;41.564;23.296;2023-11-21T06:53:12;97377.16;;;9.07;100.00
21869;BME280;11099;41.564;23.296;2023-11-21T06:55:38;97395.66;;;8.98;100.00
21869;BME280;11099;41.564;23.296;2023-11-21T06:58:04;97455.69;;;9.22;100.00
21869;BME280;11099;41.564;23.296;2023-11-21T07:00:30;97544.03;;;10.50;100.00
21869;BME280;11099;41.564;23.296;2023-11-21T07:02:56;97545.16;;;10.89;100.00
21869;BME280;11099;41.564;23.296;2023-11-21T07:05:22;97464.72;;;10.38;100.00
21869;BME280;11099;41.564;23.296;2023-11-21T07:07:48;97531.81;;;10.80;99.04
21869;BME280;11099;41.564;23.296;2023-11-21T07:10:14;97458.03;;;10.18;99.75
21869;BME280;11099;41.564;23.296;2023-11-21T07:12:40;97207.75;;;8.23;100.00
21869;BME280;11099;41.564;23.296;2023-11-21T07:15:06;97253.72;;;8.32;100.00
21869;BME280;11099;41.564;23.296;2023-11-21T07:17:37;97509.53;;;10.00;100.00
21869;BME280;11099;41.564;23.296;2023-11-21T07:20:03;97454.88;;;10.16;100.00
21869;BME280;11099;41.564;23.296;2023-11-21T07:22:29;97511.41;;;10.75;100.00
21869;BME280;11099;41.564;23.296;2023-11-21T07:24:55;97444.25;;;10.78;98.25
21869;BME280;11099;41.564;23.296;2023-11-21T07:27:24;97554.16;;;11.50;97.48
21869;BME280;11099;41.564;23.296;2023-11-21T07:29:49;97528.56;;;11.40;96.95
21869;BME280;11099;41.564;23.296;2023-11-21T07:32:15;97542.50;;;11.37;96.55
21869;BME280;11099;41.564;23.296;2023-11-21T07:34:41;97557.41;;;10.98;97.87
21869;BME280;11099;41.564;23.296;2023-11-21T07:37:07;97542.59;;;10.44;99.57
21869;BME280;11099;41.564;23.296;2023-11-21T07:39:34;97543.94;;;10.64;98.54
21869;BME280;11099;41.564;23.296;2023-11-21T07:42:01;97525.56;;;10.85;96.95
21869;BME280;11099;41.564;23.296;2023-11-21T07:44:28;97494.84;;;10.78;96.33
21869;BME280;11099;41.564;23.296;2023-11-21T07:46:54;97507.81;;;11.11;92.75
21869;BME280;11099;41.564;23.296;2023-11-21T07:49:25;97502.72;;;11.49;91.90
21869;BME280;11099;41.564;23.296;2023-11-21T07:51:52;97488.94;;;11.73;89.48
21869;BME280;11099;41.564;23.296;2023-11-21T07:54:18;97444.72;;;11.55;88.94
21869;BME280;11099;41.564;23.296;2023-11-21T07:56:43;97493.19;;;12.18;88.27
21869;BME280;11099;41.564;23.296;2023-11-21T07:59:09;97575.00;;;13.04;86.52
21869;BME280;11099;41.564;23.296;2023-11-21T08:01:34;97558.06;;;13.29;83.98
21869;BME280;11099;41.564;23.296;2023-11-21T08:04:00;97553.91;;;13.49;81.64
21869;BME280;11099;41.564;23.296;2023-11-21T08:06:32;97562.94;;;13.65;81.65
21869;BME280;11099;41.564;23.296;2023-11-21T08:08:58;97536.13;;;13.74;80.50
21869;BME280;11099;41.564;23.296;2023-11-21T08:11:24;97543.69;;;13.72;81.36
21869;BME280;11099;41.564;23.296;2023-11-21T08:13:49;97489.22;;;13.26;80.09
21869;BME280;11099;41.564;23.296;2023-11-21T08:16:15;97511.16;;;13.40;80.00
21869;BME280;11099;41.564;23.296;2023-11-21T08:18:42;97494.53;;;13.56;77.80
21869;BME280;11099;41.564;23.296;2023-11-21T08:21:07;97459.91;;;13.09;77.46
21869;BME280;11099;41.564;23.296;2023-11-21T08:23:33;97537.63;;;13.33;77.36
21869;BME280;11099;41.564;23.296;2023-11-21T08:25:59;97474.56;;;13.03;78.01
21869;BME280;11099;41.564;23.296;2023-11-21T08:28:25;97483.78;;;13.14;79.33
21869;BME280;11099;41.564;23.296;2023-11-21T08:30:53;97475.91;;;13.47;78.54
21869;BME280;11099;41.564;23.296;2023-11-21T08:33:21;97487.50;;;12.83;82.36
21869;BME280;11099;41.564;23.296;2023-11-21T08:35:48;97484.16;;;12.95;81.68
21869;BME280;11099;41.564;23.296;2023-11-21T08:38:13;97420.13;;;13.37;78.99
21869;BME280;11099;41.564;23.296;2023-11-21T08:40:39;97447.16;;;13.98;76.59
21869;BME280;11099;41.564;23.296;2023-11-21T08:43:04;97487.81;;;14.12;76.26
21869;BME280;11099;41.564;23.296;2023-11-21T08:45:30;97461.50;;;14.14;76.52
21869;BME280;11099;41.564;23.296;2023-11-21T08:47:56;97471.81;;;14.04;75.34
21869;BME280;11099;41.564;23.296;2023-11-21T08:50:22;97460.16;;;13.87;75.20
21869;BME280;11099;41.564;23.296;2023-11-21T08:52:48;97504.47;;;13.76;77.42
21869;BME280;11099;41.564;23.296;2023-11-21T08:55:14;97457.66;;;13.40;78.48
21869;BME280;11099;41.564;23.296;2023-11-21T08:57:40;97398.06;;;12.89;81.77
21869;BME280;11099;41.564;23.296;2023-11-21T09:00:10;97485.53;;;12.72;88.38
21869;BME280;11099;41.564;23.296;2023-11-21T09:02:37;97439.22;;;11.86;91.51
21869;BME280;11099;41.564;23.296;2023-11-21T09:05:03;97497.97;;;12.59;90.68
21869;BME280;11099;41.564;23.296;2023-11-21T09:07:29;97504.31;;;12.92;90.40
21869;BME280;11099;41.564;23.296;2023-11-21T09:09:55;97497.44;;;13.12;89.15
21869;BME280;11099;41.564;23.296;2023-11-21T09:12:20;97445.44;;;12.25;93.29
21869;BME280;11099;41.564;23.296;2023-11-21T09:14:47;97443.09;;;12.23;94.40
21869;BME280;11099;41.564;23.296;2023-11-21T09:17:13;97403.75;;;11.42;97.01
21869;BME280;11099;41.564;23.296;2023-11-21T09:19:40;97464.47;;;11.54;98.04
21869;BME280;11099;41.564;23.296;2023-11-21T09:22:06;97503.41;;;11.90;98.33
21869;BME280;11099;41.564;23.296;2023-11-21T09:24:32;97497.91;;;12.03;96.32
21869;BME280;11099;41.564;23.296;2023-11-21T09:26:58;97481.88;;;12.76;90.12
21869;BME280;11099;41.564;23.296;2023-11-21T09:29:28;97389.38;;;12.25;86.85
21869;BME280;11099;41.564;23.296;2023-11-21T09:31:54;97459.25;;;12.74;85.46
21869;BME280;11099;41.564;23.296;2023-11-21T09:34:21;97445.56;;;12.84;82.39
21869;BME280;11099;41.564;23.296;2023-11-21T09:36:47;97375.50;;;12.78;82.56
21869;BME280;11099;41.564;23.296;2023-11-21T09:39:13;97404.81;;;13.25;81.58
21869;BME280;11099;41.564;23.296;2023-11-21T09:41:49;97473.69;;;13.91;78.50
21869;BME280;11099;41.564;23.296;2023-11-21T09:44:18;97466.66;;;14.32;74.49
21869;BME280;11099;41.564;23.296;2023-11-21T09:46:47;97462.88;;;14.90;71.60
21869;BME280;11099;41.564;23.296;2023-11-21T09:49:18;97381.69;;;14.77;68.84
21869;BME280;11099;41.564;23.296;2023-11-21T09:51:48;97363.09;;;14.57;67.07
21869;BME280;11099;41.564;23.296;2023-11-21T09:54:15;97450.25;;;14.66;67.67
21869;BME280;11099;41.564;23.296;2023-11-21T09:56:42;97385.66;;;14.22;69.10
21869;BME280;11099;41.564;23.296;2023-11-21T09:59:13;97374.09;;;14.92;66.27
21869;BME280;11099;41.564;23.296;2023-11-21T10:01:40;97345.94;;;14.98;65.57
21869;BME280;11099;41.564;23.296;2023-11-21T10:04:06;97410.25;;;15.10;66.04
21869;BME280;11099;41.564;23.296;2023-11-21T10:06:38;97352.25;;;15.30;64.92
21869;BME280;11099;41.564;23.296;2023-11-21T10:09:04;97381.03;;;16.01;62.98
21869;BME280;11099;41.564;23.296;2023-11-21T10:11:39;97419.91;;;16.67;62.31
21869;BME280;11099;41.564;23.296;2023-11-21T10:14:08;97404.78;;;17.10;61.15
21869;BME280;11099;41.564;23.296;2023-11-21T10:16:35;97397.88;;;16.93;61.62
21869;BME280;11099;41.564;23.296;2023-11-21T10:19:03;97301.78;;;16.07;61.89
21869;BME280;11099;41.564;23.296;2023-11-21T10:21:32;97382.00;;;17.23;60.54
21869;BME280;11099;41.564;23.296;2023-11-21T10:23:58;97309.53;;;17.11;59.04
21869;BME280;11099;41.564;23.296;2023-11-21T10:26:26;97361.50;;;17.15;60.39
21869;BME280;11099;41.564;23.296;2023-11-21T10:29:00;97333.31;;;17.09;61.29
21869;BME280;11099;41.564;23.296;2023-11-21T10:31:33;97305.47;;;16.82;62.00
21869;BME280;11099;41.564;23.296;2023-11-21T10:34:13;97329.16;;;16.76;61.78
21869;BME280;11099;41.564;23.296;2023-11-21T10:36:39;97241.59;;;15.93;65.47
21869;BME280;11099;41.564;23.296;2023-11-21T10:39:05;97290.19;;;16.19;65.42
21869;BME280;11099;41.564;23.296;2023-11-21T10:41:30;97254.50;;;15.71;66.52
21869;BME280;11099;41.564;23.296;2023-11-21T10:43:56;97266.16;;;15.63;68.05
21869;BME280;11099;41.564;23.296;2023-11-21T10:46:22;97308.34;;;15.50;70.49
21869;BME280;11099;41.564;23.296;2023-11-21T10:48:53;97246.34;;;15.24;70.01
21869;BME280;11099;41.564;23.296;2023-11-21T10:51:22;97238.84;;;15.73;67.47
21869;BME280;11099;41.564;23.296;2023-11-21T10:53:52;97298.38;;;16.58;65.61
21869;BME280;11099;41.564;23.296;2023-11-21T10:56:19;97244.41;;;16.31;65.77
21869;BME280;11099;41.564;23.296;2023-11-21T10:58:50;97330.19;;;16.72;66.44
21869;BME280;11099;41.564;23.296;2023-11-21T11:01:18;97259.19;;;16.22;66.04
21869;BME280;11099;41.564;23.296;2023-11-21T11:03:47;97199.91;;;15.36;69.35
21869;BME280;11099;41.564;23.296;2023-11-21T11:06:14;97304.28;;;15.85;70.63
21869;BME280;11099;41.564;23.296;2023-11-21T11:08:40;97316.56;;;15.70;71.14
21869;BME280;11099;41.564;23.296;2023-11-21T11:11:06;97272.13;;;15.28;74.41
21869;BME280;11099;41.564;23.296;2023-11-21T11:13:32;97281.81;;;15.61;73.42
21869;BME280;11099;41.564;23.296;2023-11-21T11:15:59;97309.81;;;15.76;73.82
21869;BME280;11099;41.564;23.296;2023-11-21T11:18:29;97236.34;;;15.09;74.85
21869;BME280;11099;41.564;23.296;2023-11-21T11:21:07;97274.31;;;15.11;76.41
21869;BME280;11099;41.564;23.296;2023-11-21T11:26:16;97163.28;;;13.91;79.74
21869;BME280;11099;41.564;23.296;2023-11-21T11:34:32;97238.19;;;14.52;80.43
21869;BME280;11099;41.564;23.296;2023-11-21T11:37:07;97213.44;;;14.18;82.05
21869;BME280;11099;41.564;23.296;2023-11-21T11:39:42;97289.81;;;14.77;81.40
21869;BME280;11099;41.564;23.296;2023-11-21T11:42:15;97228.28;;;14.04;82.08
21869;BME280;11099;41.564;23.296;2023-11-21T11:47:15;97223.13;;;14.35;81.63
21869;BME280;11099;41.564;23.296;2023-11-21T11:50:01;97291.13;;;14.95;80.93
21869;BME280;11099;41.564;23.296;2023-11-21T11:52:41;97263.47;;;14.79;80.80
21869;BME280;11099;41.564;23.296;2023-11-21T11:55:14;97244.09;;;14.33;82.08
21869;BME280;11099;41.564;23.296;2023-11-21T11:57:43;97213.78;;;13.80;84.13
21869;BME280;11099;41.564;23.296;2023-11-21T12:00:17;97177.66;;;13.74;85.19
21869;BME280;11099;41.564;23.296;2023-11-21T12:02:57;97207.97;;;14.03;85.60
21869;BME280;11099;41.564;23.296;2023-11-21T12:05:25;97241.72;;;14.44;85.53
21869;BME280;11099;41.564;23.296;2023-11-21T12:07:57;97266.03;;;14.75;84.28
21869;BME280;11099;41.564;23.296;2023-11-21T12:10:27;97207.50;;;14.37;84.51
21869;BME280;11099;41.564;23.296;2023-11-21T12:12:55;97268.38;;;14.77;84.70
21869;BME280;11099;41.564;23.296;2023-11-21T12:15:21;97225.34;;;14.58;84.56
21869;BME280;11099;41.564;23.296;2023-11-21T12:17:48;97217.34;;;14.09;84.85
21869;BME280;11099;41.564;23.296;2023-11-21T12:20:16;97244.66;;;14.14;86.24
21869;BME280;11099;41.564;23.296;2023-11-21T12:22:47;97214.88;;;14.16;84.60
21869;BME280;11099;41.564;23.296;2023-11-21T12:25:17;97235.41;;;13.87;85.10
21869;BME280;11099;41.564;23.296;2023-11-21T12:27:56;97268.66;;;14.35;85.01
21869;BME280;11099;41.564;23.296;2023-11-21T12:30:23;97226.72;;;14.15;84.72
21869;BME280;11099;41.564;23.296;2023-11-21T12:32:51;97118.56;;;13.30;85.00
21869;BME280;11099;41.564;23.296;2023-11-21T12:35:18;97111.78;;;13.45;83.47
21869;BME280;11099;41.564;23.296;2023-11-21T12:37:47;97181.66;;;13.68;87.01
21869;BME280;11099;41.564;23.296;2023-11-21T12:40:14;97163.50;;;13.86;85.36
21869;BME280;11099;41.564;23.296;2023-11-21T12:42:46;97118.31;;;13.23;86.19
21869;BME280;11099;41.564;23.296;2023-11-21T12:47:50;97249.44;;;14.33;85.29
21869;BME280;11099;41.564;23.296;2023-11-21T12:50:19;97145.66;;;13.65;86.10
21869;BME280;11099;41.564;23.296;2023-11-21T12:52:50;97205.63;;;14.26;84.23
21869;BME280;11099;41.564;23.296;2023-11-21T12:55:17;97134.84;;;13.98;84.19
21869;BME280;11099;41.564;23.296;2023-11-21T12:57:44;97213.28;;;14.39;86.10
21869;BME280;11099;41.564;23.296;2023-11-21T13:00:11;97178.63;;;14.31;84.74
21869;BME280;11099;41.564;23.296;2023-11-21T13:02:41;97199.69;;;14.32;85.21
21869;BME280;11099;41.564;23.296;2023-11-21T13:05:08;97118.81;;;13.74;86.40